Vremea acum in Blaj - Romania

Vrei sa afli care e starea vremii acum in Alba - Romania? Dorim sa iti furnizam starea vremii pentru Alba - Romania. Starea vremii Alba - Romania pentru astazi.

Vremea acum in Blaj

Temperatura: 21 °C

Este: Senin
Se simte ca: 21 °C
Innorat: 0 %
Precipitatii: 0 %
Presiune atmosferica: 1016 hPa
Umiditate: 40%
Vizibilitate: 10 km
Vantul bate din ESE cu 7.6 km/h

Evolutia vremii in Blaj pe ore

Ora: 12:00
Senin
Temperatura: 21°C
Sansa de precipitatii: 0%
Ora Descriere Temp Se simte Precipitatii Umiditate Vant
00:00Senin10.3°10.3°0%81%SSE 2.2 KM/H
01:00Senin9.9°9.9°0%82%S 2.2 KM/H
02:00Senin9.5°9.5°0%83%SSW 2.5 KM/H
03:00Senin0%84%S 2.5 KM/H
04:00Senin8.6°8.6°0%85%S 2.9 KM/H
05:00Senin8.3°8.3°0%85%S 2.9 KM/H
06:00Senin0%86%S 2.5 KM/H
07:00Senin8.8°8.8°0%85%SSE 1.8 KM/H
08:00Senin12.7°12.7°0%77%ESE 2.5 KM/H
09:00Senin15°15°0%71%ESE 3.6 KM/H
10:00Senin17.1°17.2°0%64%ESE 5.8 KM/H
11:00Senin19.1°19.1°0%58%ESE 7.2 KM/H
12:00Senin21°20.8°0%40%ESE 7.6 KM/H
13:00Senin21.9°21.9°0%43%ESE 8.6 KM/H
14:00Senin22.8°24.2°0%39%ESE 9 KM/H
15:00Senin23.2°24.2°0%36%E 8.6 KM/H
16:00Senin23.5°24.2°0%35%E 7.6 KM/H
17:00Senin23.4°24.2°0%35%ESE 7.2 KM/H
18:00Senin23°24.2°0%38%ESE 7.6 KM/H
19:00Senin21.3°21.3°0%51%SE 6.1 KM/H
20:00Senin16.7°16.7°0%54%SE 4.3 KM/H
21:00Senin14.4°14.4°0%56%SE 2.5 KM/H
22:00Senin13.2°13.2°0%59%S 2.2 KM/H
23:00Senin12.2°12.7°0%64%S 3.6 KM/H




tutorials